Time;durP1;ratioP1;P1;durP2;ratioP2;P2;SDS_P1;SDS_P2;PMS_P1;PMS_P2;Temp;Humidity;BMP_temperature;BMP_pressure;BME280_temperature;BME280_humidity;BME280_pressure;Samples;Min_cycle;Max_cycle;Signal;HPM_P1;HPM_P2
2020/12/15 00:01:40;;;;;;;3.10;1.75;;;;;;;9.40;43.60;100413.63;5092155;28;20036;-71
2020/12/15 00:04:18;;;;;;;4.05;1.65;;;;;;;9.39;43.76;100419.22;5106899;28;20119;-71
2020/12/15 00:06:48;;;;;;;3.00;1.70;;;;;;;9.40;43.76;100413.63;5094341;28;20036;-70
2020/12/15 00:09:21;;;;;;;;;;;;;;;9.15;44.07;100416.78;5095730;28;20044;-70
2020/12/15 00:11:49;;;;;;;2.80;1.40;;;;;;;9.36;44.08;100409.47;5097175;28;19920;-71
2020/12/15 00:14:17;;;;;;;3.00;1.70;;;;;;;9.40;43.83;100413.63;5126795;27;20040;-71
2020/12/15 00:16:46;;;;;;;3.40;1.90;;;;;;;9.42;43.82;100418.97;5094649;28;20032;-71
2020/12/15 00:19:13;;;;;;;2.85;1.67;;;;;;;9.42;43.82;100432.63;5094073;28;20047;-69
2020/12/15 00:21:43;;;;;;;3.88;1.80;;;;;;;9.42;43.84;100408.03;5092581;28;20085;-71
2020/12/15 00:24:11;;;;;;;2.92;1.63;;;;;;;9.43;43.74;100414.38;5094125;28;20086;-70
2020/12/15 00:26:40;;;;;;;3.45;1.63;;;;;;;9.43;43.88;100422.56;5094430;28;20109;-70
2020/12/15 00:29:11;;;;;;;3.42;2.00;;;;;;;9.43;44.12;100419.81;5093994;28;20036;-70
2020/12/15 00:31:41;;;;;;;3.35;1.98;;;;;;;9.43;44.08;100425.28;5088469;28;20036;-69
2020/12/15 00:34:10;;;;;;;3.13;1.60;;;;;;;9.44;44.09;100418.84;5090115;28;20375;-69
2020/12/15 00:36:40;;;;;;;2.45;1.60;;;;;;;9.44;44.18;100419.69;5093832;28;20040;-69
2020/12/15 00:39:12;;;;;;;2.47;1.65;;;;;;;9.41;44.45;100417.22;5091479;28;20047;-68
2020/12/15 00:41:40;;;;;;;3.72;1.77;;;;;;;9.43;44.50;100409.78;5093607;28;20036;-68
2020/12/15 00:44:08;;;;;;;2.70;1.50;;;;;;;9.43;44.17;100408.91;5093357;28;20128;-68
2020/12/15 00:46:53;;;;;;;2.95;1.70;;;;;;;9.40;44.28;100408.16;5085399;28;20048;-68
2020/12/15 00:49:21;;;;;;;3.88;2.05;;;;;;;9.40;44.40;100416.38;5091601;28;20050;-68
2020/12/15 00:51:49;;;;;;;2.78;1.80;;;;;;;9.38;44.64;100407.44;5099022;28;20041;-67
2020/12/15 00:54:24;;;;;;;3.10;1.60;;;;;;;9.35;44.50;100415.91;5092123;28;20494;-68
2020/12/15 00:56:52;;;;;;;4.03;1.95;;;;;;;9.34;44.89;100408.72;5093776;28;20049;-70
2020/12/15 00:59:19;;;;;;;3.55;1.80;;;;;;;9.31;44.74;100417.16;5088510;28;20036;-73
2020/12/15 01:01:47;;;;;;;3.50;1.92;;;;;;;9.29;44.85;100415.59;5122046;27;20043;-73
2020/12/15 01:04:20;;;;;;;3.93;1.50;;;;;;;9.23;45.15;100411.53;5091891;28;20060;-73
2020/12/15 01:06:50;;;;;;;3.42;1.63;;;;;;;9.23;45.18;100414.25;5090677;28;20044;-73
2020/12/15 01:09:23;;;;;;;2.97;1.70;;;;;;;9.20;45.02;100409.09;5086994;28;20066;-73
2020/12/15 01:11:56;;;;;;;4.13;1.90;;;;;;;9.13;45.48;100402.44;5090528;28;20141;-73
2020/12/15 01:14:26;;;;;;;2.90;1.70;;;;;;;9.12;45.38;100403.44;5092820;28;20046;-73
2020/12/15 01:16:57;;;;;;;2.60;1.55;;;;;;;9.10;45.55;100415.47;5089407;28;20051;-73
2020/12/15 01:19:30;;;;;;;3.35;1.65;;;;;;;9.06;45.28;100424.91;5091727;28;20040;-73
2020/12/15 01:22:04;;;;;;;2.50;1.38;;;;;;;9.03;45.68;100425.19;5093139;28;20123;-73
2020/12/15 01:24:37;;;;;;;3.08;1.70;;;;;;;9.00;45.77;100427.19;5093007;28;20040;-73
2020/12/15 01:27:25;;;;;;;3.70;1.80;;;;;;;8.97;45.80;100429.31;5092958;28;20101;-73
2020/12/15 01:30:13;;;;;;;2.78;1.65;;;;;;;8.94;46.08;100418.66;5087559;28;20526;-73
2020/12/15 01:33:15;;;;;;;3.75;1.80;;;;;;;8.90;46.04;100425.38;5088670;28;20407;-73
2020/12/15 01:36:12;;;;;;;3.88;1.70;;;;;;;8.87;46.37;100431.97;5085897;28;20032;-73
2020/12/15 01:39:00;;;;;;;3.55;1.83;;;;;;;8.84;46.34;100426.78;5091394;28;20090;-73
2020/12/15 01:41:45;;;;;;;4.32;2.00;;;;;;;8.81;46.30;100428.88;5091786;28;20035;-73
2020/12/15 01:44:17;;;;;;;2.45;1.52;;;;;;;8.80;46.48;100424.47;5089742;28;20149;-73
2020/12/15 01:46:47;;;;;;;3.38;1.92;;;;;;;8.78;46.40;100424.59;5121505;27;20508;-73
2020/12/15 01:49:18;;;;;;;3.00;1.80;;;;;;;8.76;46.54;100423.84;5091731;28;20479;-73
2020/12/15 01:52:00;;;;;;;3.05;1.63;;;;;;;8.73;46.84;100424.09;5089279;28;20036;-73
2020/12/15 01:54:44;;;;;;;2.45;1.60;;;;;;;8.71;47.01;100414.34;5092428;28;20059;-72
2020/12/15 01:57:14;;;;;;;3.03;1.75;;;;;;;8.67;46.92;100404.66;5092241;28;20123;-72
2020/12/15 01:59:53;;;;;;;2.90;1.45;;;;;;;8.66;46.92;100409.25;5089728;28;20044;-72
2020/12/15 02:02:24;;;;;;;3.33;1.83;;;;;;;8.65;46.95;100404.78;5089792;28;20040;-72
2020/12/15 02:04:59;;;;;;;3.63;1.77;;;;;;;8.64;46.93;100405.81;5090899;28;20554;-71
2020/12/15 02:07:32;;;;;;;3.75;1.88;;;;;;;8.61;47.31;100393.31;5087388;28;20032;-71
2020/12/15 02:10:02;;;;;;;3.00;1.85;;;;;;;8.59;47.32;100392.56;5089830;28;20433;-71
2020/12/15 02:12:42;;;;;;;3.15;1.90;;;;;;;8.59;47.52;100394.41;5087944;28;20071;-71
2020/12/15 02:15:15;;;;;;;3.03;1.63;;;;;;;8.57;47.38;100397.28;5091740;28;20044;-72
2020/12/15 02:17:50;;;;;;;3.78;1.90;;;;;;;8.56;47.57;100395.53;5089602;28;20119;-71
2020/12/15 02:20:41;;;;;;;3.90;1.85;;;;;;;8.53;47.32;100406.72;5071987;28;20405;-72
2020/12/15 02:23:24;;;;;;;3.13;1.70;;;;;;;8.54;47.91;100393.97;5091138;28;20036;-71
2020/12/15 02:26:01;;;;;;;2.55;1.70;;;;;;;8.53;47.61;100403.13;5071276;28;20125;-72
2020/12/15 02:28:34;;;;;;;3.65;1.88;;;;;;;8.52;47.74;100396.81;5115916;27;20050;-72
2020/12/15 02:31:21;;;;;;;3.33;1.80;;;;;;;8.50;47.74;100401.53;5087913;28;20044;-73
2020/12/15 02:34:09;;;;;;;3.70;2.00;;;;;;;8.49;47.85;100396.19;5089054;28;20080;-73
2020/12/15 02:36:56;;;;;;;4.85;2.00;;;;;;;8.49;47.89;100409.81;5087513;28;20101;-73
2020/12/15 02:39:59;;;;;;;4.28;1.90;;;;;;;8.48;48.10;100403.50;5089179;28;20131;-73
2020/12/15 02:43:24;;;;;;;2.85;1.58;;;;;;;8.45;48.22;100414.69;5024726;28;20046;-73
2020/12/15 02:46:16;;;;;;;3.70;2.03;;;;;;;8.46;48.04;100410.09;5023116;28;20050;-74
2020/12/15 02:48:47;;;;;;;3.60;2.10;;;;;;;8.46;48.04;100430.06;5060298;28;20040;-73
2020/12/15 02:51:21;;;;;;;3.58;1.83;;;;;;;8.46;48.22;100416.44;5088771;28;20048;-73
2020/12/15 02:54:04;;;;;;;3.83;2.03;;;;;;;8.43;48.07;100427.56;5082472;28;20064;-72
2020/12/15 02:56:33;;;;;;;3.85;1.85;;;;;;;8.47;48.45;100429.06;5091784;28;20044;-72
2020/12/15 02:59:03;;;;;;;3.42;2.00;;;;;;;8.46;48.38;100430.06;5089589;28;20071;-71
2020/12/15 03:01:31;;;;;;;3.45;2.00;;;;;;;8.46;48.50;100419.16;5115627;27;20131;-71
2020/12/15 03:04:01;;;;;;;2.83;2.00;;;;;;;8.47;48.41;100420.03;5090632;28;20059;-71
2020/12/15 03:06:47;;;;;;;3.10;1.80;;;;;;;8.45;48.61;100416.53;5080658;28;20040;-71
2020/12/15 03:09:28;;;;;;;5.20;2.13;;;;;;;8.45;48.82;100424.72;5081923;28;20361;-70
2020/12/15 03:12:20;;;;;;;4.25;2.20;;;;;;;8.46;48.57;100421.88;5080960;28;20055;-70
2020/12/15 03:15:03;;;;;;;3.53;2.30;;;;;;;8.45;48.74;100416.53;5090385;28;20068;-70
2020/12/15 03:17:51;;;;;;;3.40;1.90;;;;;;;8.45;48.63;100411.97;5090698;28;20090;-70
2020/12/15 03:20:21;;;;;;;3.92;2.22;;;;;;;8.46;48.67;100421.88;5093069;28;20032;-70
2020/12/15 03:23:09;;;;;;;3.08;2.00;;;;;;;8.47;48.84;100422.75;5093355;28;20044;-70
2020/12/15 03:25:52;;;;;;;3.38;2.10;;;;;;;8.47;48.91;100425.47;5094087;28;20036;-70
2020/12/15 03:28:41;;;;;;;3.10;2.10;;;;;;;8.48;48.98;100425.31;5084890;28;20044;-70
2020/12/15 03:31:30;;;;;;;4.90;2.22;;;;;;;8.46;48.88;100421.00;5086856;28;20143;-70
2020/12/15 03:34:10;;;;;;;3.38;2.10;;;;;;;8.48;48.82;100421.72;5077742;28;20075;-70
2020/12/15 03:36:57;;;;;;;3.85;2.13;;;;;;;8.46;48.92;100415.56;5097790;28;20066;-69
2020/12/15 03:39:45;;;;;;;3.45;2.05;;;;;;;8.46;48.91;100408.25;5089653;28;20082;-70
2020/12/15 03:42:46;;;;;;;3.83;1.83;;;;;;;8.45;48.92;100414.69;5094376;28;20054;-70
2020/12/15 03:45:35;;;;;;;4.30;2.10;;;;;;;8.47;49.01;100418.16;5087935;28;20044;-70
2020/12/15 03:48:16;;;;;;;3.30;2.03;;;;;;;8.46;48.96;100418.28;5078442;28;20046;-69
2020/12/15 03:51:04;;;;;;;3.90;2.00;;;;;;;8.47;48.96;100414.56;5093593;28;20052;-70
2020/12/15 03:54:12;;;;;;;4.55;2.30;;;;;;;8.45;49.10;100413.81;5091629;28;20143;-69
2020/12/15 03:57:19;;;;;;;3.50;1.70;;;;;;;8.44;48.99;100415.69;5093316;28;20168;-69
2020/12/15 04:00:24;;;;;;;3.95;2.20;;;;;;;8.43;48.91;100413.94;5092699;28;20052;-70
2020/12/15 04:03:26;;;;;;;3.88;2.10;;;;;;;8.45;49.03;100414.69;5090574;28;20462;-70
2020/12/15 04:06:10;;;;;;;2.97;1.90;;;;;;;8.46;49.04;100415.56;5093278;28;20058;-70
2020/12/15 04:08:51;;;;;;;3.42;2.10;;;;;;;8.46;49.16;100415.56;5076491;28;20453;-70
2020/12/15 04:11:39;;;;;;;3.50;1.90;;;;;;;8.46;49.16;100416.44;5091448;28;20080;-70
2020/12/15 04:14:26;;;;;;;3.78;2.10;;;;;;;8.46;49.41;100421.88;5092364;28;20491;-70
2020/12/15 04:17:15;;;;;;;4.00;2.13;;;;;;;8.47;49.34;100420.88;5090758;28;20063;-69
2020/12/15 04:20:07;;;;;;;4.40;2.40;;;;;;;8.49;49.26;100426.19;5094342;28;20051;-70
2020/12/15 04:22:54;;;;;;;4.18;2.30;;;;;;;8.48;49.24;100424.44;5117566;27;20051;-70
2020/12/15 04:25:52;;;;;;;3.92;2.10;;;;;;;8.50;49.66;100425.19;5089895;28;20423;-70
2020/12/15 04:28:42;;;;;;;3.65;2.10;;;;;;;8.49;49.04;100431.63;5087147;28;20047;-70
2020/12/15 04:31:30;;;;;;;4.10;2.08;;;;;;;8.49;49.22;100434.34;5090224;28;20055;-69
2020/12/15 04:34:20;;;;;;;4.53;2.45;;;;;;;8.49;49.35;100431.63;5091499;28;20079;-69
2020/12/15 04:37:09;;;;;;;4.18;2.10;;;;;;;8.50;49.10;100431.50;5092403;28;20516;-70
2020/12/15 04:40:06;;;;;;;4.25;2.35;;;;;;;8.48;49.42;100429.91;5087345;28;20056;-69
2020/12/15 04:43:15;;;;;;;3.50;2.00;;;;;;;8.49;49.32;100426.19;5090324;28;20620;-70
2020/12/15 04:46:03;;;;;;;3.33;2.08;;;;;;;8.49;49.74;100429.78;5091332;28;20044;-70
2020/12/15 04:49:02;;;;;;;3.15;2.10;;;;;;;8.52;50.06;100436.84;5086298;28;20055;-70
2020/12/15 04:51:58;;;;;;;3.85;2.20;;;;;;;8.51;50.02;100443.28;5089141;28;20059;-70
2020/12/15 04:54:58;;;;;;;3.95;2.30;;;;;;;8.51;49.46;100437.81;5083050;28;20054;-69
2020/12/15 04:57:55;;;;;;;4.63;2.55;;;;;;;8.51;49.76;100437.81;5090299;28;20059;-70
2020/12/15 05:00:42;;;;;;;3.40;2.08;;;;;;;8.51;49.56;100435.09;5103894;28;20055;-69
2020/12/15 05:03:39;;;;;;;3.95;1.98;;;;;;;8.52;49.66;100431.38;5096007;28;20093;-68
2020/12/15 05:06:28;;;;;;;5.03;2.70;;;;;;;8.54;49.96;100435.72;5092501;28;20040;-68
2020/12/15 05:09:23;;;;;;;3.33;1.80;;;;;;;8.56;50.17;100441.03;5090880;28;20123;-70
2020/12/15 05:12:13;;;;;;;4.05;2.20;;;;;;;8.56;49.89;100438.28;5092183;28;20048;-69
2020/12/15 05:15:07;;;;;;;4.43;2.38;;;;;;;8.56;49.98;100438.28;5092743;28;20159;-69
2020/12/15 05:18:02;;;;;;;3.83;2.28;;;;;;;8.58;50.47;100439.03;5092757;28;20510;-69
2020/12/15 05:20:49;;;;;;;4.65;2.55;;;;;;;8.57;49.76;100448.22;5077187;28;20100;-69
2020/12/15 05:23:49;;;;;;;3.55;2.10;;;;;;;8.58;49.81;100441.75;5092231;28;20048;-69
2020/12/15 05:26:37;;;;;;;4.28;2.13;;;;;;;8.58;50.03;100437.19;5091492;28;20071;-69
2020/12/15 05:29:28;;;;;;;4.20;2.42;;;;;;;8.61;50.25;100444.25;5091777;28;20048;-69
2020/12/15 05:32:12;;;;;;;4.10;2.40;;;;;;;8.61;49.93;100436.06;5090189;28;20180;-69
2020/12/15 05:35:06;;;;;;;3.20;2.22;;;;;;;8.64;50.51;100433.91;5086405;28;20510;-69
2020/12/15 05:38:03;;;;;;;3.57;2.00;;;;;;;8.60;49.88;100437.06;5091978;28;20044;-69
2020/12/15 05:40:52;;;;;;;4.15;2.38;;;;;;;8.62;50.12;100441.38;5083579;28;20616;-69
2020/12/15 05:43:45;;;;;;;4.60;2.20;;;;;;;8.64;50.31;100444.00;5090622;28;20039;-70
2020/12/15 05:46:20;;;;;;;4.13;2.22;;;;;;;8.67;50.51;100440.97;5087107;28;20058;-69
2020/12/15 05:49:01;;;;;;;4.55;2.58;;;;;;;8.67;50.21;100437.38;5091458;28;20441;-69
2020/12/15 05:51:39;;;;;;;4.60;2.60;;;;;;;8.67;50.29;100437.38;5086848;28;20036;-69
2020/12/15 05:54:11;;;;;;;4.65;2.10;;;;;;;8.71;50.47;100445.19;5084694;28;20040;-69
2020/12/15 05:56:44;;;;;;;3.97;2.20;;;;;;;8.70;50.12;100437.13;5087044;28;20040;-69
2020/12/15 05:59:18;;;;;;;4.38;2.28;;;;;;;8.74;50.55;100446.78;5089505;28;20398;-69
2020/12/15 06:01:53;;;;;;;3.70;2.35;;;;;;;8.73;50.34;100443.19;5090839;28;20418;-69
2020/12/15 06:04:28;;;;;;;4.45;2.33;;;;;;;8.74;50.26;100433.13;5090852;28;20459;-70
2020/12/15 06:07:00;;;;;;;4.05;2.40;;;;;;;8.75;50.27;100433.00;5090615;28;20036;-70
2020/12/15 06:09:29;;;;;;;4.32;2.35;;;;;;;8.77;50.37;100443.81;5089195;28;20428;-71
2020/12/15 06:11:59;;;;;;;4.40;2.35;;;;;;;8.78;50.10;100440.06;5084637;28;20038;-71
2020/12/15 06:14:28;;;;;;;3.40;2.15;;;;;;;8.78;50.37;100446.41;5090270;28;20036;-71
2020/12/15 06:17:02;;;;;;;4.15;2.33;;;;;;;8.79;50.33;100445.41;5084816;28;20040;-71
2020/12/15 06:19:37;;;;;;;3.78;2.15;;;;;;;8.79;50.60;100452.72;5088647;28;20426;-70
2020/12/15 06:22:05;;;;;;;4.60;2.38;;;;;;;8.80;50.41;100455.31;5092618;28;20032;-69
2020/12/15 06:24:38;;;;;;;4.82;2.53;;;;;;;8.81;50.54;100446.13;5092556;28;20051;-70
2020/12/15 06:27:13;;;;;;;4.13;2.45;;;;;;;8.82;50.63;100446.97;5083270;28;20036;-71
2020/12/15 06:29:57;;;;;;;4.35;2.80;;;;;;;8.81;50.14;100451.56;5091095;28;20043;-71
2020/12/15 06:32:29;;;;;;;4.85;2.60;;;;;;;8.84;50.88;100447.72;5088646;28;20040;-71
2020/12/15 06:34:57;;;;;;;3.83;2.40;;;;;;;8.83;50.43;100444.13;5090070;28;20036;-70
2020/12/15 06:37:25;;;;;;;4.88;2.65;;;;;;;8.85;50.56;100450.34;5091343;28;20093;-71
2020/12/15 06:40:04;;;;;;;4.63;2.63;;;;;;;8.85;50.79;100455.78;5089574;28;20101;-71
2020/12/15 06:42:31;;;;;;;4.00;2.70;;;;;;;8.85;50.49;100457.66;5091197;28;20063;-70
2020/12/15 06:45:04;;;;;;;4.85;2.85;;;;;;;8.87;50.91;100452.94;5089299;28;20036;-70
2020/12/15 06:47:42;;;;;;;4.40;2.50;;;;;;;8.87;50.74;100456.53;5116115;27;20032;-70
2020/12/15 06:50:14;;;;;;;4.82;2.67;;;;;;;8.89;50.98;100462.69;5089247;28;20457;-71
2020/12/15 06:52:46;;;;;;;4.35;2.65;;;;;;;8.87;50.77;100458.38;5090985;28;20136;-71
2020/12/15 06:55:15;;;;;;;4.38;2.60;;;;;;;8.87;50.85;100459.25;5088764;28;20040;-70
2020/12/15 06:57:44;;;;;;;5.57;3.38;;;;;;;8.88;50.79;100460.13;5088429;28;20044;-70
2020/12/15 07:00:16;;;;;;;4.28;2.33;;;;;;;8.87;51.14;100466.56;5086402;28;20514;-70
2020/12/15 07:02:52;;;;;;;5.13;2.45;;;;;;;8.93;51.88;100469.63;5091785;28;20048;-69
2020/12/15 07:05:24;;;;;;;5.82;2.80;;;;;;;8.94;52.28;100463.19;5085985;28;20044;-69
2020/12/15 07:07:57;;;;;;;5.65;2.80;;;;;;;8.98;51.87;100463.75;5083732;28;20044;-70
2020/12/15 07:10:29;;;;;;;6.38;3.03;;;;;;;9.03;51.49;100474.31;5086949;28;20055;-71
2020/12/15 07:12:59;;;;;;;5.68;3.00;;;;;;;9.03;51.36;100480.63;5087748;28;20044;-72
2020/12/15 07:15:29;;;;;;;4.20;2.80;;;;;;;9.09;51.12;100479.22;5085652;28;20452;-72
2020/12/15 07:18:01;;;;;;;4.75;3.00;;;;;;;9.12;51.16;100477.09;5088713;28;20051;-72
2020/12/15 07:20:33;;;;;;;6.30;3.20;;;;;;;9.12;51.32;100479.84;5084973;28;20043;-72
2020/12/15 07:23:01;;;;;;;4.85;3.30;;;;;;;9.15;50.92;100486.88;5089125;28;20048;-71
2020/12/15 07:25:28;;;;;;;4.72;3.15;;;;;;;9.15;50.95;100487.75;5091503;28;21344;-71
2020/12/15 07:28:02;;;;;;;5.10;3.13;;;;;;;9.16;51.15;100494.94;5086735;28;20134;-71
2020/12/15 07:30:39;;;;;;;4.93;3.30;;;;;;;9.15;51.19;100493.19;5099568;28;20035;-73
2020/12/15 07:33:15;;;;;;;5.55;3.65;;;;;;;9.17;51.36;100488.47;5085709;28;20032;-72
2020/12/15 07:35:43;;;;;;;4.85;2.83;;;;;;;9.13;50.90;100492.50;5088511;28;20495;-72
2020/12/15 07:38:14;;;;;;;6.55;3.40;;;;;;;9.14;51.08;100494.19;5086359;28;20101;-73
2020/12/15 07:40:42;;;;;;;4.90;3.22;;;;;;;9.12;50.98;100495.34;5084951;28;20056;-74
2020/12/15 07:43:10;;;;;;;6.75;3.58;;;;;;;9.12;51.06;100501.66;5088733;28;20049;-73
2020/12/15 07:45:37;;;;;;;5.95;3.65;;;;;;;9.11;51.14;100504.53;5088523;28;20028;-73
2020/12/15 07:48:09;;;;;;;5.72;3.70;;;;;;;9.11;51.03;100507.25;5090119;28;20070;-71
2020/12/15 07:50:40;;;;;;;6.43;3.20;;;;;;;9.06;51.04;100502.16;5087457;28;20425;-70
2020/12/15 07:53:09;;;;;;;5.40;3.30;;;;;;;9.08;51.14;100502.91;5078297;28;20493;-70
2020/12/15 07:55:40;;;;;;;5.97;3.53;;;;;;;9.06;51.20;100498.56;5083653;28;20498;-69
2020/12/15 07:58:14;;;;;;;4.80;3.40;;;;;;;9.08;51.77;100502.03;5088086;28;20044;-70
2020/12/15 08:00:43;;;;;;;5.80;3.65;;;;;;;9.05;51.18;100502.31;5084464;28;20024;-70
2020/12/15 08:03:11;;;;;;;5.85;3.70;;;;;;;9.05;51.17;100502.31;5087321;28;20051;-69
2020/12/15 08:05:41;;;;;;;4.90;3.30;;;;;;;9.01;51.35;100499.84;5088058;28;20040;-69
2020/12/15 08:08:13;;;;;;;5.00;3.22;;;;;;;9.01;51.27;100499.84;5092998;28;20040;-68
2020/12/15 08:10:43;;;;;;;6.93;3.90;;;;;;;9.00;51.47;100503.56;5092157;28;20123;-68
2020/12/15 08:13:14;;;;;;;5.28;3.30;;;;;;;9.01;51.32;100496.25;5075264;28;20560;-69
2020/12/15 08:15:47;;;;;;;5.85;3.58;;;;;;;8.99;51.49;100499.09;5092595;28;20119;-69
2020/12/15 08:18:17;;;;;;;6.47;3.90;;;;;;;9.03;51.73;100504.31;5098192;28;20036;-69
2020/12/15 08:21:00;;;;;;;5.45;3.60;;;;;;;9.02;51.96;100506.19;5089276;28;20635;-69
2020/12/15 08:23:51;;;;;;;5.60;3.53;;;;;;;9.01;51.67;100507.16;5089793;28;20032;-70
2020/12/15 08:26:22;;;;;;;6.50;3.97;;;;;;;9.01;51.52;100498.97;5084511;28;20487;-70
2020/12/15 08:29:02;;;;;;;6.03;4.00;;;;;;;9.00;51.64;100503.56;5102530;28;20040;-70
2020/12/15 08:31:38;;;;;;;5.53;3.33;;;;;;;9.00;51.54;100510.88;5092605;28;20044;-70
2020/12/15 08:34:14;;;;;;;6.63;3.90;;;;;;;9.01;51.87;100505.31;5098864;28;20098;-71
2020/12/15 08:36:45;;;;;;;5.45;3.45;;;;;;;9.04;51.66;100516.97;5089574;28;20117;-71
2020/12/15 08:39:19;;;;;;;6.28;3.88;;;;;;;9.04;51.94;100519.69;5093521;28;20039;-71
2020/12/15 08:41:51;;;;;;;6.28;4.07;;;;;;;9.03;51.84;100507.91;5086463;28;20048;-70
2020/12/15 08:44:21;;;;;;;7.07;3.97;;;;;;;9.05;51.78;100514.09;5090059;28;20044;-71
2020/12/15 08:46:52;;;;;;;6.30;3.80;;;;;;;9.05;51.94;100510.50;5090901;28;20496;-70
2020/12/15 08:49:24;;;;;;;6.28;4.03;;;;;;;9.07;51.69;100513.94;5088630;28;20377;-69
2020/12/15 08:51:55;;;;;;;6.68;4.10;;;;;;;9.04;52.07;100517.84;5087593;28;20040;-69
2020/12/15 08:54:24;;;;;;;7.47;3.80;;;;;;;9.06;51.65;100521.28;5090623;28;20043;-69
2020/12/15 08:56:52;;;;;;;5.97;4.05;;;;;;;9.07;51.65;100527.59;5090499;28;20040;-70
2020/12/15 08:59:25;;;;;;;6.68;4.10;;;;;;;9.07;51.91;100523.00;5090097;28;20047;-70
2020/12/15 09:01:59;;;;;;;6.28;3.78;;;;;;;9.09;52.18;100537.38;5091130;28;20036;-70
2020/12/15 09:04:28;;;;;;;;;;;;;;;8.83;52.79;100536.00;5084481;28;20050;-70
2020/12/15 09:07:12;;;;;;;6.75;3.75;;;;;;;9.08;52.46;100532.06;5090978;28;19926;-71
2020/12/15 09:09:49;;;;;;;7.10;4.60;;;;;;;9.07;51.71;100542.09;5090655;28;20032;-72
2020/12/15 09:12:18;;;;;;;6.28;4.13;;;;;;;9.08;51.94;100535.66;5091632;28;20488;-70
2020/12/15 09:15:00;;;;;;;7.30;4.68;;;;;;;9.13;52.56;100551.66;5082746;28;20040;-72
2020/12/15 09:17:30;;;;;;;6.35;4.13;;;;;;;9.10;51.96;100546.44;5090951;28;20047;-70
2020/12/15 09:19:59;;;;;;;6.25;4.10;;;;;;;9.12;52.21;100556.25;5089642;28;20057;-69
2020/12/15 09:22:29;;;;;;;6.75;4.40;;;;;;;9.10;51.93;100550.03;5092006;28;20109;-70
2020/12/15 09:25:01;;;;;;;6.82;4.30;;;;;;;9.11;52.00;100553.63;5087537;28;20475;-69
2020/12/15 09:27:33;;;;;;;6.07;3.85;;;;;;;9.12;51.93;100561.69;5088949;28;20073;-70
2020/12/15 09:30:02;;;;;;;5.43;3.88;;;;;;;9.11;52.24;100557.22;5090491;28;20039;-69
2020/12/15 09:32:35;;;;;;;6.35;4.10;;;;;;;9.14;52.51;100558.81;5087246;28;20509;-70
2020/12/15 09:35:05;;;;;;;6.88;4.30;;;;;;;9.13;52.33;100555.25;5087245;28;20036;-70
2020/12/15 09:37:39;;;;;;;6.22;4.38;;;;;;;9.15;52.28;100558.69;5086110;28;20032;-70
2020/12/15 09:40:09;;;;;;;6.30;4.20;;;;;;;9.16;52.32;100554.97;5091832;28;20066;-69
2020/12/15 09:42:44;;;;;;;5.97;4.07;;;;;;;9.16;52.47;100557.69;5091646;28;20123;-70
2020/12/15 09:45:12;;;;;;;6.32;3.95;;;;;;;9.16;52.07;100551.38;5092714;28;20047;-71
2020/12/15 09:47:46;;;;;;;6.35;4.35;;;;;;;9.18;52.28;100557.56;5089644;28;20372;-70
2020/12/15 09:50:15;;;;;;;5.72;3.80;;;;;;;9.20;52.09;100559.19;5088773;28;20051;-70
2020/12/15 09:52:50;;;;;;;6.45;4.18;;;;;;;9.21;52.29;100562.78;5090832;28;20081;-70
2020/12/15 09:55:18;;;;;;;6.05;4.22;;;;;;;9.21;52.10;100562.78;5090363;28;20105;-70
2020/12/15 09:57:47;;;;;;;6.28;4.00;;;;;;;9.22;52.33;100565.34;5091358;28;20071;-69
2020/12/15 10:00:28;;;;;;;6.32;4.10;;;;;;;9.22;52.32;100561.75;5083487;28;20081;-70
2020/12/15 10:03:01;;;;;;;6.07;4.07;;;;;;;9.23;52.35;100568.94;5091528;28;20036;-70
2020/12/15 10:05:55;;;;;;;5.70;3.63;;;;;;;9.24;52.31;100574.28;5086493;28;20044;-70
2020/12/15 10:08:25;;;;;;;6.25;4.18;;;;;;;9.23;52.18;100572.53;5089420;28;20043;-70
2020/12/15 10:10:54;;;;;;;5.88;3.78;;;;;;;9.25;52.22;100572.41;5087585;28;20421;-69
2020/12/15 10:13:23;;;;;;;7.15;4.47;;;;;;;9.24;52.63;100579.75;5092793;28;20039;-69
2020/12/15 10:16:04;;;;;;;5.95;3.63;;;;;;;9.24;52.56;100574.28;5087927;28;20442;-69
2020/12/15 10:18:42;;;;;;;6.13;3.78;;;;;;;9.26;52.40;100577.75;5090921;28;20046;-69
2020/12/15 10:21:11;;;;;;;5.97;3.85;;;;;;;9.28;52.42;100575.78;5094498;28;20398;-70
2020/12/15 10:23:49;;;;;;;5.43;3.63;;;;;;;9.28;52.40;100585.81;5086824;28;20039;-69
2020/12/15 10:26:25;;;;;;;5.90;3.55;;;;;;;9.29;52.41;100580.22;5087008;28;20471;-69
2020/12/15 10:28:54;;;;;;;5.50;3.90;;;;;;;9.30;52.85;100584.66;5090753;28;21007;-69
2020/12/15 10:31:28;;;;;;;6.53;3.97;;;;;;;9.31;52.74;100580.94;5087729;28;20040;-69
2020/12/15 10:33:59;;;;;;;7.03;4.15;;;;;;;9.33;52.44;100584.41;5085545;28;20375;-69
2020/12/15 10:36:30;;;;;;;5.57;3.47;;;;;;;9.35;52.70;100566.06;5088774;28;20138;-70
2020/12/15 10:39:06;;;;;;;6.22;4.22;;;;;;;9.35;52.46;100555.13;5089964;28;20040;-70
2020/12/15 10:41:39;;;;;;;5.60;4.00;;;;;;;9.32;52.61;100558.13;5087196;28;20056;-69
2020/12/15 10:44:15;;;;;;;6.38;3.83;;;;;;;9.34;52.40;100561.59;5101286;28;20391;-69
2020/12/15 10:46:47;;;;;;;6.05;3.85;;;;;;;9.37;52.76;100565.94;5081048;28;20047;-69
2020/12/15 10:49:16;;;;;;;5.32;3.50;;;;;;;9.37;52.49;100569.53;5087237;28;20067;-69
2020/12/15 10:51:52;;;;;;;6.53;3.85;;;;;;;9.37;52.89;100569.53;5091276;28;20028;-69
2020/12/15 10:54:21;;;;;;;5.65;3.95;;;;;;;9.36;52.44;100575.09;5089965;28;20040;-69
2020/12/15 10:56:53;;;;;;;6.07;3.95;;;;;;;9.39;52.68;100575.69;5090191;28;20024;-69
2020/12/15 10:59:29;;;;;;;5.50;3.85;;;;;;;9.40;52.47;100580.16;5090142;28;20101;-69
2020/12/15 11:01:58;;;;;;;5.72;3.95;;;;;;;9.42;52.59;100577.31;5089347;28;20074;-69
2020/12/15 11:04:27;;;;;;;6.28;3.90;;;;;;;9.44;52.64;100574.44;5084857;28;20501;-68
2020/12/15 11:06:57;;;;;;;7.85;4.57;;;;;;;9.46;52.88;100581.53;5109117;27;20033;-68
2020/12/15 11:09:30;;;;;;;6.43;4.32;;;;;;;9.46;52.74;100583.38;5083932;28;20494;-68
2020/12/15 11:12:00;;;;;;;6.47;3.85;;;;;;;9.46;52.75;100586.97;5086537;28;20050;-68
2020/12/15 11:14:33;;;;;;;6.82;4.00;;;;;;;9.47;52.39;100574.16;5069911;28;20131;-69
2020/12/15 11:17:04;;;;;;;6.38;3.72;;;;;;;9.48;52.80;100564.97;5082522;28;20075;-68
2020/12/15 11:19:34;;;;;;;7.07;4.07;;;;;;;9.50;52.69;100574.78;5090741;28;20553;-68
2020/12/15 11:22:03;;;;;;;6.20;3.40;;;;;;;9.51;52.80;100581.09;5085943;28;20553;-68
2020/12/15 11:24:40;;;;;;;5.53;3.50;;;;;;;9.49;52.79;100575.78;5083058;28;20040;-68
2020/12/15 11:27:11;;;;;;;7.30;4.40;;;;;;;9.49;52.73;100581.22;5086274;28;20114;-68
2020/12/15 11:29:41;;;;;;;5.57;3.67;;;;;;;9.52;52.81;100591.91;5084474;28;20040;-68
2020/12/15 11:32:30;;;;;;;7.43;4.20;;;;;;;9.53;52.80;100592.78;5077469;28;20032;-68
2020/12/15 11:35:18;;;;;;;7.57;4.38;;;;;;;9.53;52.99;100593.63;5088928;28;20099;-68
2020/12/15 11:38:06;;;;;;;5.97;4.07;;;;;;;9.55;52.70;100593.47;5091158;28;20044;-68
2020/12/15 11:40:54;;;;;;;6.13;3.88;;;;;;;9.55;52.58;100588.88;5094793;28;20051;-68
2020/12/15 11:43:26;;;;;;;;;;;;;;;9.31;53.61;100591.88;5094315;28;20040;-69
2020/12/15 11:46:03;;;;;;;7.03;4.30;;;;;;;9.53;52.56;100584.59;5092191;28;19920;-68
2020/12/15 11:48:42;;;;;;;7.45;4.22;;;;;;;9.56;52.55;100590.63;5092806;28;20463;-68
2020/12/15 11:51:10;;;;;;;6.25;3.70;;;;;;;9.58;53.01;100605.03;5091574;28;20380;-68
2020/12/15 11:53:39;;;;;;;5.80;3.08;;;;;;;9.60;53.03;100604.91;5092795;28;20063;-69
2020/12/15 11:56:16;;;;;;;6.28;3.67;;;;;;;9.62;53.07;100602.91;5085830;28;20067;-70
2020/12/15 11:59:06;;;;;;;6.45;3.95;;;;;;;9.63;53.16;100610.94;5090485;28;20059;-71
2020/12/15 12:01:35;;;;;;;6.13;4.00;;;;;;;9.65;53.16;100617.16;5085142;28;20526;-72
2020/12/15 12:04:05;;;;;;;7.88;4.13;;;;;;;9.68;53.17;100616.03;5087007;28;20070;-74
2020/12/15 12:06:40;;;;;;;7.15;3.97;;;;;;;9.70;53.26;100617.66;5090360;28;20032;-72
2020/12/15 12:09:09;;;;;;;6.47;4.25;;;;;;;9.74;53.01;100620.97;5092082;28;20044;-72
2020/12/15 12:11:39;;;;;;;7.20;4.10;;;;;;;9.75;52.99;100622.72;5085796;28;20111;-73
2020/12/15 12:14:27;;;;;;;6.40;3.95;;;;;;;9.78;53.09;100616.13;5089442;28;20047;-72
2020/12/15 12:17:03;;;;;;;6.35;4.18;;;;;;;9.79;52.89;100624.19;5114257;27;20491;-72
2020/12/15 12:19:51;;;;;;;6.78;3.85;;;;;;;9.80;53.15;100628.63;5095442;27;20067;-71
2020/12/15 12:22:38;;;;;;;6.20;3.45;;;;;;;9.82;52.74;100626.63;5091263;28;20044;-69